Alexander, West Virginia
Current Conditions -  °F | °C
As of 1:35 AM on Wednesday 28 Jan 2015 (Local Time) from KW22 Reporting Station
Light Snow Light Snow  
Wind Chill: 11°   Ceiling: 1200
Heat Index: 18°   Visibility: 10mi
Dew Point: 12°   Wind: 5mph
Humidity: 79%   Direction: 270°W
Pressure: 30.12"   Gusts: NA
Location:  38.8347°N, 80.2578°W
Report Text: KW22 280635Z AUTO 27004KT 10SM -SN FEW001 BKN012 OVC044 M08/M11 A3012 RMK AO2
Loading
Personal Weather Stations






























Interactive Weather Map New forecast layout! Learn more

10-Day Weather Forecast

Advertisements
Track Severe Weather on mobile